Time;durP1;ratioP1;P1;durP2;ratioP2;P2;SDS_P1;SDS_P2;PMS_P1;PMS_P2;Temp;Humidity;BMP_temperature;BMP_pressure;BME280_temperature;BME280_humidity;BME280_pressure;Samples;Min_cycle;Max_cycle;Signal;HPM_P1;HPM_P2
2022/07/03 00:00:45;;;;;;;3.13;2.25;;;;;;;16.72;82.29;99189.81;5088919;28;20478;-66
2022/07/03 00:03:31;;;;;;;4.45;2.40;;;;;;;16.94;80.51;99187.91;5099037;28;20094;-67
2022/07/03 00:06:16;;;;;;;3.13;2.03;;;;;;;16.86;81.27;99183.28;5113909;28;20459;-67
2022/07/03 00:09:03;;;;;;;3.15;2.00;;;;;;;16.72;81.16;99177.44;5099067;28;20050;-66
2022/07/03 00:11:49;;;;;;;4.90;2.70;;;;;;;16.81;81.01;99172.28;5115794;28;20110;-66
2022/07/03 00:14:34;;;;;;;3.08;2.42;;;;;;;16.78;81.35;99169.94;5084165;28;20084;-65
2022/07/03 00:17:18;;;;;;;3.00;2.53;;;;;;;16.68;81.89;99161.97;5113453;28;20047;-66
2022/07/03 00:20:04;;;;;;;4.75;2.33;;;;;;;16.62;81.71;99172.09;5101277;28;20032;-67
2022/07/03 00:22:50;;;;;;;3.85;2.75;;;;;;;16.71;81.79;99170.44;5082524;28;20047;-66
2022/07/03 00:25:38;;;;;;;6.45;2.85;;;;;;;16.82;81.01;99153.63;5086941;28;20052;-66
2022/07/03 00:28:24;;;;;;;4.05;2.78;;;;;;;16.73;81.34;99159.72;5080913;28;20039;-66
2022/07/03 00:31:12;;;;;;;4.15;2.50;;;;;;;16.65;81.83;99168.34;5112326;28;20096;-66
2022/07/03 00:33:58;;;;;;;3.95;2.67;;;;;;;16.70;81.64;99175.88;5065217;28;20031;-66
2022/07/03 00:36:45;;;;;;;3.25;2.67;;;;;;;16.70;81.55;99175.88;5093657;28;20044;-65
2022/07/03 00:39:30;;;;;;;3.00;2.45;;;;;;;16.67;81.65;99182.28;5083627;28;20057;-66
2022/07/03 00:42:16;;;;;;;3.58;2.80;;;;;;;16.70;82.14;99183.81;5064054;28;20040;-66
2022/07/03 00:45:02;;;;;;;4.60;2.75;;;;;;;16.74;81.92;99175.47;5107184;28;20065;-66
2022/07/03 00:47:47;;;;;;;3.35;2.38;;;;;;;16.86;80.98;99181.50;5097419;28;20043;-66
2022/07/03 00:50:36;;;;;;;5.03;2.60;;;;;;;16.83;80.90;99184.41;5112236;28;20059;-66
2022/07/03 00:53:28;;;;;;;3.63;2.50;;;;;;;16.86;81.26;99170.06;5111911;28;20355;-66
2022/07/03 00:56:15;;;;;;;2.88;2.40;;;;;;;16.72;81.32;99171.28;5101437;28;20043;-69
2022/07/03 00:59:00;;;;;;;3.95;2.75;;;;;;;16.71;82.09;99182.84;5096744;28;20043;-66
2022/07/03 01:01:46;;;;;;;5.68;3.00;;;;;;;16.51;82.75;99185.44;5083381;28;20490;-66
2022/07/03 01:04:43;;;;;;;4.53;2.83;;;;;;;16.43;83.62;99180.81;5112151;28;20046;-66
2022/07/03 01:07:48;;;;;;;3.50;2.80;;;;;;;16.68;82.38;99167.25;5112321;28;20490;-66
2022/07/03 01:11:15;;;;;;;4.65;2.92;;;;;;;16.85;81.59;99169.25;5112133;28;20483;-66
2022/07/03 01:13:59;;;;;;;5.57;2.83;;;;;;;16.89;81.00;99161.03;5094898;28;20466;-65
2022/07/03 01:16:55;;;;;;;5.00;2.78;;;;;;;16.95;80.82;99148.09;5102769;28;20486;-66
2022/07/03 01:19:45;;;;;;;4.80;2.85;;;;;;;17.08;79.78;99145.22;5080749;28;20422;-67
2022/07/03 01:22:44;;;;;;;4.07;2.80;;;;;;;17.18;79.24;99142.56;5083081;28;20382;-66
2022/07/03 01:25:44;;;;;;;5.65;3.25;;;;;;;17.06;79.74;99152.41;5070649;28;20036;-67
2022/07/03 01:28:28;;;;;;;3.75;2.75;;;;;;;17.05;79.93;99142.81;5097666;28;20031;-66
2022/07/03 01:31:19;;;;;;;4.43;2.88;;;;;;;16.97;80.44;99142.66;5083035;28;20071;-66
2022/07/03 01:34:12;;;;;;;4.05;2.97;;;;;;;16.88;80.80;99131.06;5112346;28;20398;-66
2022/07/03 01:37:00;;;;;;;4.28;3.20;;;;;;;16.89;81.14;99134.56;5100417;28;20036;-66
2022/07/03 01:39:48;;;;;;;4.65;3.13;;;;;;;16.87;81.07;99132.06;5094590;28;20040;-66
2022/07/03 01:42:40;;;;;;;4.32;2.88;;;;;;;16.92;80.71;99134.28;5097422;28;20040;-66
2022/07/03 01:45:28;;;;;;;4.93;2.67;;;;;;;16.93;81.05;99128.88;5112193;28;20372;-66
2022/07/03 01:48:14;;;;;;;4.00;3.03;;;;;;;16.81;81.11;99122.03;5120736;28;20103;-66
2022/07/03 01:51:00;;;;;;;5.35;2.92;;;;;;;16.79;81.55;99122.19;5110671;28;20035;-66
2022/07/03 01:53:47;;;;;;;3.90;2.90;;;;;;;16.86;81.12;99119.78;5117538;28;20044;-65
2022/07/03 01:56:33;;;;;;;3.92;2.80;;;;;;;16.86;81.21;99115.34;5105574;28;20040;-66
2022/07/03 01:59:18;;;;;;;4.10;3.22;;;;;;;16.90;80.96;99113.25;5051679;28;20312;-66
2022/07/03 02:02:17;;;;;;;5.43;2.80;;;;;;;16.94;80.49;99116.47;5075685;28;20075;-66
2022/07/03 02:05:08;;;;;;;3.83;2.80;;;;;;;16.93;80.30;99117.44;5094190;28;20063;-66
2022/07/03 02:08:06;;;;;;;3.95;3.00;;;;;;;16.85;80.78;99121.63;5096106;28;20417;-66
2022/07/03 02:11:13;;;;;;;6.60;3.25;;;;;;;16.74;81.23;99113.81;5102697;28;20413;-66
2022/07/03 02:14:19;;;;;;;7.00;3.25;;;;;;;16.61;82.13;99109.59;5113196;28;20055;-66
2022/07/03 02:17:20;;;;;;;4.82;3.05;;;;;;;16.56;82.75;99109.19;5100028;28;20035;-67
2022/07/03 02:20:09;;;;;;;3.83;3.13;;;;;;;16.52;83.13;99102.47;5115732;28;20032;-65
2022/07/03 02:22:59;;;;;;;3.90;2.92;;;;;;;16.54;82.91;99100.53;5115324;28;20579;-67
2022/07/03 02:25:46;;;;;;;4.93;3.20;;;;;;;16.59;82.71;99094.84;5099320;28;20035;-66
2022/07/03 02:28:55;;;;;;;3.90;2.80;;;;;;;16.59;82.44;99100.13;5099159;28;20043;-66
2022/07/03 02:31:50;;;;;;;3.60;2.60;;;;;;;16.67;81.50;99097.63;5115193;28;20046;-67
2022/07/03 02:34:35;;;;;;;4.40;2.90;;;;;;;16.78;81.42;99098.50;5114810;28;20046;-66
2022/07/03 02:37:22;;;;;;;5.90;2.80;;;;;;;16.84;80.55;99098.75;5114888;28;20502;-65
2022/07/03 02:40:44;;;;;;;4.75;2.70;;;;;;;16.87;80.57;99097.66;5078926;28;20141;-67
2022/07/03 02:43:43;;;;;;;3.88;2.63;;;;;;;16.75;80.87;99089.84;5104865;28;20044;-66
2022/07/03 02:46:49;;;;;;;4.40;2.70;;;;;;;16.68;81.49;99093.19;5089855;28;20479;-66
2022/07/03 02:49:48;;;;;;;5.43;2.90;;;;;;;16.62;81.84;99097.22;5112642;28;20059;-67
2022/07/03 02:52:32;;;;;;;5.97;3.10;;;;;;;16.63;81.86;99091.78;5101069;28;20044;-65
2022/07/03 02:55:43;;;;;;;5.28;3.20;;;;;;;16.53;81.45;99090.09;5099666;28;20084;-66
2022/07/03 02:59:00;;;;;;;4.55;2.75;;;;;;;16.48;81.97;99093.16;5098945;28;20372;-67
2022/07/03 03:01:54;;;;;;;4.13;3.03;;;;;;;16.41;82.54;99095.50;5058790;28;20815;-66
2022/07/03 03:04:44;;;;;;;3.28;2.70;;;;;;;16.41;82.69;99092.84;5104036;28;20040;-65
2022/07/03 03:07:36;;;;;;;4.10;2.85;;;;;;;16.46;82.76;99081.88;5098741;28;20042;-66
2022/07/03 03:10:21;;;;;;;;;;;;;;;16.54;82.34;99084.66;5098523;28;20035;-66
2022/07/03 03:13:12;;;;;;;5.45;2.78;;;;;;;16.61;81.79;99085.78;5115004;28;19915;-66
2022/07/03 03:16:08;;;;;;;5.32;3.30;;;;;;;16.61;81.97;99088.44;5113663;28;20041;-66
2022/07/03 03:18:53;;;;;;;7.22;2.72;;;;;;;16.64;81.85;99079.41;5114275;28;20039;-66
2022/07/03 03:21:48;;;;;;;3.83;2.92;;;;;;;16.69;81.63;99087.78;5102570;28;20035;-67
2022/07/03 03:24:33;;;;;;;5.13;3.25;;;;;;;16.70;81.93;99094.72;5084073;28;20470;-65
2022/07/03 03:27:18;;;;;;;4.68;3.00;;;;;;;16.74;81.67;99093.47;5113850;28;20463;-66
2022/07/03 03:30:06;;;;;;;4.28;3.17;;;;;;;16.77;81.38;99094.16;5085713;28;20434;-66
2022/07/03 03:32:51;;;;;;;5.20;2.88;;;;;;;16.76;81.77;99098.63;5113671;28;20522;-66
2022/07/03 03:35:37;;;;;;;4.53;3.40;;;;;;;16.75;81.94;99095.16;5102854;28;20092;-67
2022/07/03 03:38:22;;;;;;;4.63;2.90;;;;;;;16.79;81.69;99101.00;5098637;28;20036;-67
2022/07/03 03:41:08;;;;;;;3.42;2.70;;;;;;;16.85;81.59;99102.25;5104592;28;20031;-66
2022/07/03 03:43:52;;;;;;;5.18;3.33;;;;;;;16.93;81.03;99104.19;5116313;28;20039;-67
2022/07/03 03:46:37;;;;;;;3.88;2.55;;;;;;;16.98;79.58;99107.28;5114412;28;20386;-67
2022/07/03 03:49:22;;;;;;;5.05;3.10;;;;;;;16.83;80.83;99109.47;5099422;28;20044;-66
2022/07/03 03:52:07;;;;;;;5.50;2.92;;;;;;;16.89;80.23;99118.69;5084666;28;20032;-66
2022/07/03 03:54:52;;;;;;;4.15;2.70;;;;;;;16.86;81.32;99119.78;5098361;28;20122;-66
2022/07/03 03:57:38;;;;;;;4.65;2.63;;;;;;;16.85;81.45;99124.25;5114099;28;20039;-66
2022/07/03 04:00:23;;;;;;;5.18;2.50;;;;;;;16.97;81.68;99116.19;5097240;28;20038;-66
2022/07/03 04:03:08;;;;;;;3.80;2.65;;;;;;;17.09;81.04;99122.22;5112997;28;20039;-66
2022/07/03 04:05:53;;;;;;;4.50;2.72;;;;;;;17.21;80.38;99123.75;5095216;28;20114;-66
2022/07/03 04:08:38;;;;;;;4.28;2.95;;;;;;;17.28;79.92;99124.03;5112796;28;20255;-67
2022/07/03 04:11:22;;;;;;;4.85;2.90;;;;;;;17.42;78.77;99125.41;5097937;28;20123;-66
2022/07/03 04:14:07;;;;;;;5.75;2.88;;;;;;;17.56;78.09;99126.78;5112652;28;20426;-66
2022/07/03 04:16:52;;;;;;;5.00;3.03;;;;;;;17.72;77.73;99131.47;5097347;28;20312;-67
2022/07/03 04:19:37;;;;;;;4.43;2.97;;;;;;;17.72;77.73;99125.38;5100428;28;20063;-66
2022/07/03 04:22:21;;;;;;;6.28;2.88;;;;;;;17.75;78.29;99127.72;5096579;28;20043;-66
2022/07/03 04:25:07;;;;;;;4.13;2.85;;;;;;;17.66;78.77;99131.25;5112513;28;20032;-66
2022/07/03 04:27:52;;;;;;;4.53;3.13;;;;;;;17.74;78.76;99128.69;5112424;28;20027;-67
2022/07/03 04:30:37;;;;;;;4.28;2.97;;;;;;;17.66;78.35;99118.00;5113116;28;20082;-64
2022/07/03 04:33:21;;;;;;;3.47;2.63;;;;;;;17.59;79.06;99123.84;5101087;28;20131;-67
2022/07/03 04:36:06;;;;;;;4.60;2.53;;;;;;;17.19;80.63;99122.22;5097119;28;20372;-67
2022/07/03 04:38:51;;;;;;;4.60;2.72;;;;;;;16.98;82.39;99121.34;5051953;28;20044;-66
2022/07/03 04:41:36;;;;;;;3.72;2.45;;;;;;;17.06;82.08;99117.16;5113003;28;20031;-66
2022/07/03 04:44:21;;;;;;;4.25;2.53;;;;;;;17.18;82.00;99116.09;5091084;28;20043;-65
2022/07/03 04:47:06;;;;;;;5.80;2.75;;;;;;;17.27;81.81;99113.59;5086551;28;20040;-67
2022/07/03 04:49:51;;;;;;;4.07;2.70;;;;;;;17.42;81.06;99120.13;5082334;28;20421;-66
2022/07/03 04:52:35;;;;;;;5.03;2.70;;;;;;;16.98;83.26;99125.78;5076652;28;20040;-66
2022/07/03 04:55:20;;;;;;;5.28;3.15;;;;;;;16.85;83.48;99123.41;5081783;28;20050;-66
2022/07/03 04:58:05;;;;;;;4.13;2.90;;;;;;;16.74;84.16;99124.38;5112131;28;20139;-66
2022/07/03 05:00:50;;;;;;;5.57;3.10;;;;;;;16.63;84.66;99139.38;5084974;28;20042;-66
2022/07/03 05:03:35;;;;;;;4.82;3.30;;;;;;;16.49;85.66;99148.53;5111529;28;20100;-67
2022/07/03 05:06:19;;;;;;;4.05;2.92;;;;;;;16.61;85.89;99143.16;5082992;28;20043;-67
2022/07/03 05:09:04;;;;;;;3.88;2.90;;;;;;;16.78;85.24;99146.94;5111578;28;20061;-67
2022/07/03 05:11:49;;;;;;;4.68;2.83;;;;;;;16.77;85.26;99147.06;5112805;28;20469;-67
2022/07/03 05:14:33;;;;;;;6.07;3.25;;;;;;;16.84;85.51;99143.75;5097292;28;20044;-67
2022/07/03 05:17:18;;;;;;;4.32;3.30;;;;;;;16.99;84.23;99141.53;5096230;28;20035;-65
2022/07/03 05:23:07;;;;;;;4.93;2.80;;;;;;;17.34;83.01;99146.47;5100691;28;20482;-65
2022/07/03 05:25:52;;;;;;;3.45;2.60;;;;;;;17.73;81.42;99146.41;5117056;28;20042;-65
2022/07/03 05:28:37;;;;;;;4.40;2.85;;;;;;;18.01;79.80;99147.47;5122680;28;20123;-66
2022/07/03 05:31:21;;;;;;;4.80;2.88;;;;;;;18.15;78.68;99152.31;5112312;28;20498;-66
2022/07/03 05:34:06;;;;;;;4.30;3.08;;;;;;;18.28;78.60;99151.19;5111220;28;20398;-66
2022/07/03 05:36:51;;;;;;;4.22;3.13;;;;;;;18.48;76.68;99141.31;5120597;28;20046;-65
2022/07/03 05:39:37;;;;;;;5.10;3.20;;;;;;;18.33;77.93;99152.41;5059763;28;20478;-66
2022/07/03 05:42:23;;;;;;;4.18;3.20;;;;;;;18.14;78.81;99152.47;5102537;28;20035;-66
2022/07/03 05:45:08;;;;;;;4.43;3.28;;;;;;;18.13;79.34;99156.94;5098645;28;20478;-65
2022/07/03 05:47:53;;;;;;;4.15;3.20;;;;;;;18.07;79.78;99162.78;5128523;28;20040;-65
2022/07/03 05:50:38;;;;;;;5.78;3.53;;;;;;;18.11;80.05;99161.53;5095773;28;20039;-66
2022/07/03 05:53:24;;;;;;;4.47;3.53;;;;;;;18.12;80.51;99159.69;5083763;28;20036;-65
2022/07/03 05:56:09;;;;;;;4.50;3.20;;;;;;;18.55;78.73;99166.25;5100710;28;20046;-66
2022/07/03 05:58:55;;;;;;;4.70;3.28;;;;;;;18.72;77.77;99166.44;5101677;28;20073;-65
2022/07/03 06:01:43;;;;;;;5.60;3.50;;;;;;;18.62;77.63;99165.66;5068403;28;20038;-67
2022/07/03 06:04:28;;;;;;;5.20;3.75;;;;;;;18.54;78.82;99171.72;5099991;28;20044;-65
2022/07/03 06:07:15;;;;;;;4.95;3.22;;;;;;;18.50;79.51;99168.53;5100127;28;20039;-65
2022/07/03 06:10:01;;;;;;;5.15;3.42;;;;;;;18.74;78.51;99172.44;5086840;28;20043;-66
2022/07/03 06:12:46;;;;;;;4.43;3.55;;;;;;;18.91;78.13;99168.16;5100767;28;20386;-67
2022/07/03 06:15:31;;;;;;;5.63;3.53;;;;;;;19.07;77.11;99162.19;5115359;28;20032;-67
2022/07/03 06:18:15;;;;;;;6.00;3.80;;;;;;;19.42;75.40;99169.50;5115762;28;20463;-66
2022/07/03 06:21:00;;;;;;;4.82;3.63;;;;;;;19.49;75.43;99170.53;5099339;28;20485;-65
2022/07/03 06:23:44;;;;;;;4.90;3.90;;;;;;;19.41;76.07;99168.66;5116217;28;20047;-64
2022/07/03 06:26:29;;;;;;;5.75;3.90;;;;;;;19.75;74.50;99163.59;5102431;28;20050;-67
2022/07/03 06:29:13;;;;;;;4.60;3.58;;;;;;;19.55;73.19;99167.25;5070748;28;20043;-66
2022/07/03 06:31:59;;;;;;;4.25;3.35;;;;;;;19.68;73.52;99172.16;5100005;28;20044;-64
2022/07/03 06:34:44;;;;;;;5.15;3.78;;;;;;;19.77;73.78;99173.06;5115164;28;20036;-67
2022/07/03 06:37:29;;;;;;;5.18;3.80;;;;;;;20.22;69.76;99165.03;5115516;28;20035;-65
2022/07/03 06:40:13;;;;;;;5.03;3.75;;;;;;;20.18;70.11;99166.38;5087878;28;20110;-66
2022/07/03 06:42:59;;;;;;;5.13;3.97;;;;;;;20.13;71.47;99171.31;5115520;28;20036;-66
2022/07/03 06:45:43;;;;;;;4.05;3.13;;;;;;;21.01;68.82;99171.19;5099350;28;20035;-65
2022/07/03 06:48:28;;;;;;;5.63;3.60;;;;;;;20.65;69.10;99166.88;5072167;28;20031;-66
2022/07/03 06:51:13;;;;;;;3.83;2.88;;;;;;;20.89;67.49;99167.97;5098543;28;20068;-65
2022/07/03 06:53:57;;;;;;;4.57;3.15;;;;;;;20.93;66.51;99166.69;5101451;28;20032;-66
2022/07/03 06:56:43;;;;;;;6.57;3.72;;;;;;;21.05;66.55;99165.34;5114614;28;20149;-66
2022/07/03 06:59:27;;;;;;;4.20;3.58;;;;;;;21.00;65.34;99161.53;5098933;28;20058;-66
2022/07/03 07:02:12;;;;;;;4.95;3.60;;;;;;;21.17;65.19;99171.22;5113933;28;20398;-66
2022/07/03 07:04:57;;;;;;;5.55;3.83;;;;;;;21.11;64.99;99169.22;5078988;28;20036;-66
2022/07/03 07:07:42;;;;;;;5.70;3.05;;;;;;;21.32;65.47;99162.56;5065839;28;20427;-66
2022/07/03 07:10:27;;;;;;;4.07;2.92;;;;;;;21.46;64.68;99161.06;5110245;28;20069;-66
2022/07/03 07:13:11;;;;;;;4.47;3.13;;;;;;;21.63;62.53;99153.06;5114479;28;20840;-66
2022/07/03 07:15:56;;;;;;;4.55;3.47;;;;;;;21.54;62.82;99162.91;5066836;28;20044;-66
2022/07/03 07:18:41;;;;;;;4.38;3.33;;;;;;;21.39;63.15;99158.25;5095756;28;20092;-67
2022/07/03 07:21:26;;;;;;;5.18;3.28;;;;;;;21.74;60.28;99165.22;5114256;28;20044;-65
2022/07/03 07:24:10;;;;;;;4.40;3.10;;;;;;;21.94;60.24;99165.72;5078430;28;20062;-65
2022/07/03 07:26:55;;;;;;;4.80;3.35;;;;;;;21.88;60.36;99167.25;5092390;28;20043;-65
2022/07/03 07:29:40;;;;;;;4.25;3.00;;;;;;;21.94;60.49;99168.38;5082256;28;20068;-65
2022/07/03 07:32:25;;;;;;;6.90;3.75;;;;;;;22.23;60.50;99168.81;5073495;28;20123;-65
2022/07/03 07:35:09;;;;;;;6.45;3.40;;;;;;;22.46;60.15;99168.88;5086657;28;20047;-65
2022/07/03 07:37:54;;;;;;;4.15;3.13;;;;;;;22.13;60.56;99167.16;5059288;28;20032;-65
2022/07/03 07:40:39;;;;;;;4.22;3.28;;;;;;;22.59;59.89;99173.66;5091867;28;20075;-65
2022/07/03 07:43:24;;;;;;;4.22;3.60;;;;;;;22.57;59.44;99170.34;5095201;28;20070;-66
2022/07/03 07:46:09;;;;;;;4.30;3.42;;;;;;;22.86;59.46;99168.91;5102359;28;20047;-66
2022/07/03 07:48:53;;;;;;;5.30;3.38;;;;;;;22.48;59.08;99168.72;5083199;28;20389;-67
2022/07/03 07:51:38;;;;;;;5.65;3.03;;;;;;;22.63;59.06;99166.19;5068204;28;20066;-65
2022/07/03 07:54:23;;;;;;;5.53;3.65;;;;;;;22.98;58.45;99172.00;5092106;28;20081;-65
2022/07/03 07:57:07;;;;;;;5.15;3.47;;;;;;;22.75;59.61;99163.97;5069864;28;20078;-67
2022/07/03 07:59:54;;;;;;;6.38;3.38;;;;;;;22.91;59.12;99165.69;5086719;28;20054;-64
2022/07/03 08:05:44;;;;;;;5.32;3.08;;;;;;;24.06;54.51;99169.44;5091734;28;20626;-65
2022/07/03 08:08:29;;;;;;;4.57;3.20;;;;;;;24.09;54.95;99167.22;5092836;28;20040;-66
2022/07/03 08:11:23;;;;;;;5.20;3.00;;;;;;;24.10;54.61;99174.25;5054803;28;20064;-66
2022/07/03 08:14:11;;;;;;;4.78;2.90;;;;;;;24.55;52.53;99170.75;5058525;28;20067;-66
2022/07/03 08:16:55;;;;;;;6.03;2.92;;;;;;;24.28;53.88;99167.75;5084831;28;20043;-65
2022/07/03 08:19:40;;;;;;;3.70;2.95;;;;;;;24.13;54.98;99165.03;5078965;28;20040;-66
2022/07/03 08:22:25;;;;;;;5.72;2.88;;;;;;;24.43;52.49;99170.38;5093612;28;20478;-65
2022/07/03 08:25:10;;;;;;;5.85;2.70;;;;;;;24.38;51.16;99170.13;5097288;28;20121;-68
2022/07/03 08:27:57;;;;;;;3.78;2.60;;;;;;;24.83;50.19;99170.03;5112686;28;20038;-66
2022/07/03 08:30:43;;;;;;;2.88;2.10;;;;;;;24.96;49.23;99163.19;5069078;28;20088;-65
2022/07/03 08:33:27;;;;;;;3.78;2.28;;;;;;;25.27;49.46;99156.69;5097959;28;20043;-66
2022/07/03 08:36:13;;;;;;;2.47;1.73;;;;;;;25.64;46.20;99158.47;5096991;28;20040;-67
2022/07/03 08:38:59;;;;;;;3.35;2.38;;;;;;;25.55;46.79;99157.75;5112823;28;20104;-65
2022/07/03 08:41:46;;;;;;;2.70;1.90;;;;;;;25.67;45.48;99163.44;5099835;28;20040;-65
2022/07/03 08:44:31;;;;;;;2.45;1.70;;;;;;;26.35;47.12;99159.34;5080564;28;20523;-69
2022/07/03 08:47:17;;;;;;;3.60;2.58;;;;;;;26.89;43.89;99166.75;5087528;28;20395;-66
2022/07/03 08:50:03;;;;;;;5.10;2.58;;;;;;;26.80;45.76;99171.47;5096487;28;20036;-66
2022/07/03 08:52:48;;;;;;;4.43;2.20;;;;;;;26.03;46.11;99165.13;5112729;28;20036;-66
2022/07/03 08:55:34;;;;;;;3.83;2.25;;;;;;;27.33;44.80;99158.38;5084721;28;20042;-66
2022/07/03 08:58:22;;;;;;;2.80;2.33;;;;;;;27.60;41.35;99163.75;5051033;28;20052;-66
2022/07/03 09:01:07;;;;;;;3.53;2.30;;;;;;;28.16;43.44;99161.63;5102289;28;20055;-66
2022/07/03 09:03:53;;;;;;;3.90;1.75;;;;;;;27.84;41.76;99162.31;5104181;28;20043;-66
2022/07/03 09:06:40;;;;;;;2.33;2.03;;;;;;;28.34;43.29;99160.13;5100781;28;20039;-66
2022/07/03 09:09:25;;;;;;;3.28;2.63;;;;;;;28.23;41.91;99154.34;5105220;28;20042;-66
2022/07/03 09:12:10;;;;;;;2.35;1.85;;;;;;;27.97;42.26;99149.88;5105824;28;20401;-66
2022/07/03 09:14:54;;;;;;;3.17;2.40;;;;;;;28.48;41.83;99150.97;5105698;28;20044;-66
2022/07/03 09:17:40;;;;;;;5.28;2.00;;;;;;;28.55;41.31;99150.09;5097266;28;20093;-66
2022/07/03 09:20:36;;;;;;;4.43;2.10;;;;;;;29.45;39.71;99132.13;5112564;28;20040;-66
